createdAt,value
2019-03-12T00:00:21.898Z,92.30
2019-03-12T00:02:50.434Z,92.50
2019-03-12T00:05:19.340Z,92.60
2019-03-12T00:07:47.909Z,92.70
2019-03-12T00:10:16.452Z,92.50
2019-03-12T00:12:45.059Z,92.40
2019-03-12T00:15:13.616Z,92.50
2019-03-12T00:17:42.224Z,92.40
2019-03-12T00:20:10.849Z,92.40
2019-03-12T00:22:39.496Z,92.10
2019-03-12T00:25:08.416Z,92.10
2019-03-12T00:27:37.100Z,92.10
2019-03-12T00:30:07.470Z,92.40
2019-03-12T00:32:36.041Z,92.30
2019-03-12T00:35:06.440Z,92.10
2019-03-12T00:37:35.016Z,92.40
2019-03-12T00:40:04.496Z,92.50
2019-03-12T00:42:33.192Z,92.50
2019-03-12T00:45:01.749Z,92.40
2019-03-12T00:47:30.584Z,92.60
2019-03-12T00:49:59.315Z,92.20
2019-03-12T00:52:27.983Z,92.10
2019-03-12T00:54:56.540Z,92.00
2019-03-12T00:57:25.440Z,91.80
2019-03-12T00:59:56.282Z,91.50
2019-03-12T01:02:24.224Z,91.70
2019-03-12T01:04:52.796Z,91.50
2019-03-12T01:07:21.460Z,91.50
2019-03-12T01:09:50.071Z,91.50
2019-03-12T01:12:18.623Z,91.60
2019-03-12T01:14:47.212Z,91.50
2019-03-12T01:17:15.752Z,91.40
2019-03-12T01:19:44.405Z,91.50
2019-03-12T01:22:13.233Z,91.40
2019-03-12T01:24:42.225Z,91.20
2019-03-12T01:27:10.884Z,91.20
2019-03-12T01:29:39.767Z,90.90
2019-03-12T01:32:08.392Z,91.00
2019-03-12T01:34:36.952Z,90.80
2019-03-12T01:37:05.608Z,90.90
2019-03-12T01:39:34.155Z,91.20
2019-03-12T01:42:02.723Z,91.00
2019-03-12T01:44:31.280Z,90.80
2019-03-12T01:46:59.864Z,90.90
2019-03-12T01:49:28.426Z,91.00
2019-03-12T01:51:57.059Z,90.90
2019-03-12T01:54:25.620Z,91.10
2019-03-12T01:56:54.300Z,91.20
2019-03-12T01:59:23.127Z,91.50
2019-03-12T02:01:51.708Z,91.50
2019-03-12T02:04:20.434Z,91.60
2019-03-12T02:06:48.984Z,92.00
2019-03-12T02:09:17.724Z,92.20
2019-03-12T02:11:46.285Z,92.30
2019-03-12T02:14:23.100Z,92.30
2019-03-12T02:16:51.649Z,92.20
2019-03-12T02:19:20.224Z,92.30
2019-03-12T02:21:48.774Z,92.60
2019-03-12T02:24:17.345Z,92.50
2019-03-12T02:26:46.274Z,92.40
2019-03-12T02:29:14.989Z,92.60
2019-03-12T02:31:43.852Z,92.70
2019-03-12T02:34:12.606Z,92.60
2019-03-12T02:36:41.152Z,92.80
2019-03-12T02:39:10.568Z,92.90
2019-03-12T02:41:39.121Z,92.70
2019-03-12T02:44:07.681Z,92.90
2019-03-12T02:46:36.291Z,93.10
2019-03-12T02:49:09.179Z,93.00
2019-03-12T02:51:35.541Z,93.20
2019-03-12T02:54:04.181Z,93.30
2019-03-12T02:56:32.792Z,93.50
2019-03-12T02:59:01.370Z,93.60
2019-03-12T03:01:30.294Z,93.70
2019-03-12T03:03:58.876Z,93.80
2019-03-12T03:06:29.066Z,93.90
2019-03-12T03:08:57.654Z,94.00
2019-03-12T03:11:26.194Z,94.20
2019-03-12T03:13:54.769Z,94.30
2019-03-12T03:16:24.423Z,94.30
2019-03-12T03:18:53.269Z,94.30
2019-03-12T03:21:21.907Z,94.40
2019-03-12T03:23:50.461Z,94.60
2019-03-12T03:26:19.062Z,94.70
2019-03-12T03:28:47.637Z,94.70
2019-03-12T03:31:16.186Z,94.80
2019-03-12T03:33:44.760Z,94.90
2019-03-12T03:36:13.311Z,95.10
2019-03-12T03:38:41.889Z,95.30
2019-03-12T03:41:10.445Z,95.30
2019-03-12T03:43:39.052Z,95.30
2019-03-12T03:46:07.618Z,95.70
2019-03-12T03:48:36.234Z,95.80
2019-03-12T03:51:04.811Z,95.90
2019-03-12T03:53:33.368Z,96.00
2019-03-12T03:56:02.012Z,96.10
2019-03-12T03:58:30.553Z,96.20
2019-03-12T04:00:59.128Z,96.40
2019-03-12T04:03:28.092Z,96.40
2019-03-12T04:05:56.982Z,96.60
2019-03-12T04:08:25.537Z,96.60
2019-03-12T04:10:54.217Z,96.60
2019-03-12T04:13:22.868Z,96.80
2019-03-12T04:15:51.632Z,96.70
2019-03-12T04:18:20.186Z,96.80
2019-03-12T04:20:48.851Z,96.80
2019-03-12T04:23:17.398Z,97.00
2019-03-12T04:25:45.966Z,96.90
2019-03-12T04:28:14.587Z,96.90
2019-03-12T04:30:43.164Z,96.90
2019-03-12T04:33:48.197Z,97.00
2019-03-12T04:36:16.772Z,97.20
2019-03-12T04:38:45.324Z,97.20
2019-03-12T04:41:13.896Z,97.30
2019-03-12T04:43:42.464Z,97.40
2019-03-12T04:46:11.033Z,97.80
2019-03-12T04:48:39.618Z,97.30
2019-03-12T04:51:08.207Z,97.30
2019-03-12T04:53:37.658Z,97.30
2019-03-12T04:56:06.348Z,97.20
2019-03-12T04:58:34.908Z,97.20
2019-03-12T05:01:03.568Z,97.10
2019-03-12T05:03:32.120Z,97.10
2019-03-12T05:06:00.970Z,97.00
2019-03-12T05:08:29.489Z,97.00
2019-03-12T05:10:58.068Z,96.90
2019-03-12T05:13:26.617Z,97.10
2019-03-12T05:15:55.193Z,97.00
2019-03-12T05:18:24.062Z,96.90
2019-03-12T05:20:52.765Z,96.70
2019-03-12T05:23:21.336Z,96.90
2019-03-12T05:25:49.908Z,96.30
2019-03-12T05:28:18.460Z,96.10
2019-03-12T05:30:47.135Z,96.30
2019-03-12T05:33:15.692Z,96.30
2019-03-12T05:35:44.264Z,96.20
2019-03-12T05:38:12.816Z,96.00
2019-03-12T05:40:41.392Z,95.80
2019-03-12T05:43:09.952Z,95.60
2019-03-12T05:45:38.531Z,95.60
2019-03-12T05:48:07.079Z,95.20
2019-03-12T05:50:35.632Z,94.80
2019-03-12T05:53:15.589Z,94.40
2019-03-12T05:55:44.159Z,94.20
2019-03-12T05:58:12.712Z,94.00
2019-03-12T06:00:41.265Z,93.80
2019-03-12T06:03:09.920Z,93.70
2019-03-12T06:05:38.512Z,93.20
2019-03-12T06:08:07.108Z,93.00
2019-03-12T06:10:36.061Z,92.80
2019-03-12T06:13:04.708Z,92.40
2019-03-12T06:15:33.272Z,92.10
2019-03-12T06:18:01.960Z,92.10
2019-03-12T06:20:30.872Z,91.40
2019-03-12T06:22:59.480Z,91.00
2019-03-12T06:25:28.150Z,90.40
2019-03-12T06:27:56.721Z,84.70
2019-03-12T06:30:25.994Z,79.70
2019-03-12T06:33:08.377Z,73.70
2019-03-12T06:35:54.510Z,67.20
2019-03-12T06:38:41.322Z,59.20
2019-03-12T06:41:14.248Z,54.70
2019-03-12T06:43:50.303Z,53.40
2019-03-12T06:46:23.284Z,53.70
2019-03-12T06:49:02.363Z,55.80
2019-03-12T06:51:38.392Z,57.90
2019-03-12T06:54:23.896Z,59.00
2019-03-12T06:56:56.624Z,57.00
2019-03-12T06:59:26.953Z,58.00
2019-03-12T07:01:57.140Z,64.10
2019-03-12T07:04:43.648Z,68.90
2019-03-12T07:07:22.608Z,68.10
2019-03-12T07:09:53.168Z,63.60
2019-03-12T07:12:26.696Z,57.80
2019-03-12T07:15:00.272Z,56.30
2019-03-12T07:17:30.596Z,53.40
2019-03-12T07:20:13.024Z,50.80
2019-03-12T07:23:00.288Z,49.00
2019-03-12T07:25:30.519Z,47.40
2019-03-12T07:28:00.688Z,46.60
2019-03-12T07:30:46.013Z,44.80
2019-03-12T07:33:18.961Z,44.40
2019-03-12T07:35:52.116Z,44.80
2019-03-12T07:38:31.544Z,43.90
2019-03-12T07:41:22.956Z,43.60
2019-03-12T07:43:48.500Z,43.40
2019-03-12T07:46:35.323Z,43.30
2019-03-12T07:49:14.109Z,43.10
2019-03-12T07:51:47.240Z,42.80
2019-03-12T07:54:20.420Z,39.80
2019-03-12T07:56:53.696Z,36.80
2019-03-12T07:59:23.927Z,33.80
2019-03-12T08:01:54.122Z,33.50
2019-03-12T08:04:33.208Z,35.60
2019-03-12T08:07:06.464Z,32.60
2019-03-12T08:09:36.658Z,30.50
2019-03-12T08:12:06.943Z,29.60
2019-03-12T08:14:37.144Z,32.30
2019-03-12T08:17:07.415Z,31.40
2019-03-12T08:19:40.301Z,29.70
2019-03-12T08:22:13.379Z,28.10
2019-03-12T08:24:43.567Z,27.50
2019-03-12T08:27:16.881Z,26.30
2019-03-12T08:29:47.404Z,27.90
2019-03-12T08:32:17.636Z,31.00
2019-03-12T08:35:04.861Z,32.50
2019-03-12T08:37:38.076Z,31.80
2019-03-12T08:40:27.134Z,32.40
2019-03-12T08:43:09.646Z,32.50
2019-03-12T08:45:45.356Z,29.00
2019-03-12T08:48:14.439Z,28.50
2019-03-12T08:50:50.925Z,28.10
2019-03-12T08:53:21.152Z,28.20
2019-03-12T08:55:51.345Z,29.60
2019-03-12T08:58:24.616Z,31.80
2019-03-12T09:00:57.724Z,29.70
2019-03-12T09:03:43.037Z,27.10
2019-03-12T09:06:22.077Z,26.80
2019-03-12T09:09:04.036Z,24.60
2019-03-12T09:11:37.009Z,26.10
2019-03-12T09:14:10.196Z,26.20
2019-03-12T09:16:55.740Z,28.50
2019-03-12T09:19:38.278Z,26.60
2019-03-12T09:22:20.746Z,25.70
2019-03-12T09:24:50.969Z,24.60
2019-03-12T09:27:26.932Z,24.80
2019-03-12T09:30:09.558Z,23.10
2019-03-12T09:32:45.745Z,22.20
2019-03-12T09:35:16.318Z,21.80
2019-03-12T09:37:46.568Z,21.60
2019-03-12T09:40:28.952Z,20.90
2019-03-12T09:42:59.228Z,22.10
2019-03-12T09:45:29.444Z,20.90
2019-03-12T09:48:15.800Z,21.60
2019-03-12T09:50:46.015Z,21.70
2019-03-12T09:53:19.250Z,23.40
2019-03-12T09:56:07.581Z,24.70
2019-03-12T09:58:40.509Z,25.90
2019-03-12T10:01:10.793Z,24.20
2019-03-12T10:03:43.851Z,22.80
2019-03-12T10:06:14.088Z,21.10
2019-03-12T10:08:44.296Z,22.00
2019-03-12T10:11:14.513Z,21.20
2019-03-12T10:13:54.265Z,23.00
2019-03-12T10:16:36.240Z,21.90
2019-03-12T10:19:15.524Z,21.80
2019-03-12T10:21:54.788Z,24.70
2019-03-12T10:24:25.192Z,22.00
2019-03-12T10:26:58.072Z,25.70
2019-03-12T10:29:44.752Z,23.30
2019-03-12T10:32:14.968Z,22.20
2019-03-12T10:34:54.544Z,20.40
2019-03-12T10:37:30.693Z,19.20
2019-03-12T10:40:08.424Z,19.30
2019-03-12T10:42:41.654Z,17.00
2019-03-12T10:45:15.202Z,19.10
2019-03-12T10:47:48.192Z,18.20
2019-03-12T10:50:16.820Z,17.00
2019-03-12T10:52:45.566Z,17.10
2019-03-12T10:55:14.293Z,20.30
2019-03-12T10:57:42.836Z,24.30
2019-03-12T11:00:16.832Z,27.20
2019-03-12T11:02:45.576Z,28.30
2019-03-12T11:05:14.477Z,32.10
2019-03-12T11:07:43.282Z,32.20
2019-03-12T11:10:21.376Z,34.00
2019-03-12T11:12:49.955Z,35.70
2019-03-12T11:15:18.683Z,36.70
2019-03-12T11:17:49.813Z,36.50
2019-03-12T11:20:28.193Z,33.30
2019-03-12T11:22:56.765Z,36.90
2019-03-12T11:25:27.582Z,37.70
2019-03-12T11:27:55.615Z,36.50
2019-03-12T11:30:24.252Z,36.90
2019-03-12T11:32:52.833Z,41.10
2019-03-12T11:35:21.415Z,39.80
2019-03-12T11:37:49.994Z,39.80
2019-03-12T11:40:24.370Z,40.50
2019-03-12T11:42:52.908Z,42.80
2019-03-12T11:45:34.900Z,41.20
2019-03-12T11:47:51.856Z,36.80
2019-03-12T11:50:22.825Z,38.50
2019-03-12T11:52:56.447Z,38.60
2019-03-12T11:55:21.824Z,42.10
2019-03-12T11:57:50.485Z,40.80
2019-03-12T12:00:26.546Z,43.30
2019-03-12T12:03:00.035Z,43.80
2019-03-12T12:05:25.379Z,43.50
2019-03-12T12:07:54.033Z,43.30
2019-03-12T12:10:23.328Z,41.60
2019-03-12T12:12:52.124Z,44.40
2019-03-12T12:15:20.870Z,41.10
2019-03-12T12:17:49.699Z,43.60
2019-03-12T12:20:28.692Z,43.30
2019-03-12T12:22:49.084Z,42.40
2019-03-12T12:25:18.959Z,42.90
2019-03-12T12:27:47.604Z,41.90
2019-03-12T12:30:19.028Z,42.80
2019-03-12T12:32:47.731Z,42.70
2019-03-12T12:35:16.352Z,42.40
2019-03-12T12:37:45.372Z,42.60
2019-03-12T12:40:17.048Z,40.90
2019-03-12T12:42:45.691Z,42.00
2019-03-12T12:45:22.923Z,43.30
2019-03-12T12:47:51.500Z,43.80
2019-03-12T12:50:20.224Z,42.00
2019-03-12T12:52:48.807Z,42.10
2019-03-12T12:55:17.462Z,42.50
2019-03-12T12:57:46.027Z,44.20
2019-03-12T13:00:20.432Z,43.50
2019-03-12T13:02:49.456Z,42.90
2019-03-12T13:05:18.435Z,45.00
2019-03-12T13:07:47.164Z,44.00
2019-03-12T13:10:21.656Z,43.60
2019-03-12T13:12:50.377Z,43.30
2019-03-12T13:15:18.996Z,43.70
2019-03-12T13:17:48.039Z,43.40
2019-03-12T13:20:16.724Z,44.90
2019-03-12T13:22:45.342Z,43.10
2019-03-12T13:25:16.024Z,43.30
2019-03-12T13:27:44.782Z,42.60
2019-03-12T13:30:21.172Z,43.40
2019-03-12T13:32:49.878Z,43.80
2019-03-12T13:35:19.349Z,43.70
2019-03-12T13:37:48.840Z,43.60
2019-03-12T13:40:25.951Z,44.60
2019-03-12T13:42:54.861Z,43.60
2019-03-12T13:45:26.150Z,43.00
2019-03-12T13:47:55.108Z,43.40
2019-03-12T13:50:23.822Z,43.80
2019-03-12T13:52:52.614Z,45.00
2019-03-12T13:55:21.188Z,45.00
2019-03-12T13:57:50.255Z,45.20
2019-03-12T14:00:23.788Z,46.00
2019-03-12T14:02:52.643Z,45.20
2019-03-12T14:05:21.219Z,44.70
2019-03-12T14:07:49.940Z,46.00
2019-03-12T14:10:25.322Z,45.60
2019-03-12T14:12:54.618Z,46.30
2019-03-12T14:15:32.192Z,46.10
2019-03-12T14:18:01.144Z,44.70
2019-03-12T14:20:46.696Z,44.60
2019-03-12T14:23:24.029Z,43.50
2019-03-12T14:25:52.672Z,45.00
2019-03-12T14:28:21.495Z,45.10
2019-03-12T14:30:50.135Z,43.40
2019-03-12T14:33:18.754Z,44.60
2019-03-12T14:35:52.052Z,44.00
2019-03-12T14:38:19.111Z,44.80
2019-03-12T14:40:47.924Z,43.90
2019-03-12T14:43:17.061Z,45.00
2019-03-12T14:45:48.118Z,44.00
2019-03-12T14:48:36.490Z,41.60
2019-03-12T14:51:08.421Z,43.90
2019-03-12T14:53:37.795Z,44.30
2019-03-12T14:56:06.365Z,45.80
2019-03-12T14:58:34.926Z,43.50
2019-03-12T15:01:03.655Z,45.60
2019-03-12T15:03:32.204Z,45.30
2019-03-12T15:06:00.847Z,44.40
2019-03-12T15:08:29.399Z,45.60
2019-03-12T15:10:57.989Z,45.90
2019-03-12T15:13:26.540Z,46.10
2019-03-12T15:15:55.109Z,44.40
2019-03-12T15:18:23.668Z,45.10
2019-03-12T15:20:52.305Z,43.60
2019-03-12T15:23:20.879Z,45.10
2019-03-12T15:25:49.517Z,44.90
2019-03-12T15:28:18.076Z,45.00
2019-03-12T15:30:46.653Z,45.50
2019-03-12T15:33:15.205Z,45.20
2019-03-12T15:35:44.092Z,45.10
2019-03-12T15:38:12.641Z,43.20
2019-03-12T15:40:41.292Z,44.90
2019-03-12T15:43:09.972Z,44.90
2019-03-12T15:45:38.572Z,45.10
2019-03-12T15:48:07.296Z,43.20
2019-03-12T15:50:35.869Z,44.70
2019-03-12T15:53:04.421Z,45.60
2019-03-12T15:55:33.077Z,45.30
2019-03-12T15:58:01.616Z,44.80
2019-03-12T16:00:30.282Z,45.90
2019-03-12T16:02:58.839Z,45.90
2019-03-12T16:05:27.413Z,44.00
2019-03-12T16:07:56.036Z,44.80
2019-03-12T16:10:24.636Z,46.00
2019-03-12T16:12:53.188Z,45.50
2019-03-12T16:15:21.785Z,46.40
2019-03-12T16:17:50.328Z,46.70
2019-03-12T16:20:23.108Z,46.40
2019-03-12T16:22:51.693Z,46.70
2019-03-12T16:25:20.399Z,45.90
2019-03-12T16:27:49.065Z,46.50
2019-03-12T16:30:21.560Z,47.60
2019-03-12T16:32:50.614Z,46.70
2019-03-12T16:35:19.169Z,47.20
2019-03-12T16:37:47.777Z,47.10
2019-03-12T16:40:20.348Z,46.60
2019-03-12T16:42:48.965Z,48.10
2019-03-12T16:45:21.383Z,47.60
2019-03-12T16:47:50.032Z,47.90
2019-03-12T16:50:18.957Z,47.90
2019-03-12T16:52:47.541Z,45.50
2019-03-12T16:55:17.521Z,47.50
2019-03-12T16:57:46.378Z,48.20
2019-03-12T17:00:21.885Z,45.30
2019-03-12T17:02:50.455Z,44.90
2019-03-12T17:05:19.020Z,46.40
2019-03-12T17:07:47.752Z,45.50
2019-03-12T17:10:20.416Z,47.50
2019-03-12T17:12:49.482Z,47.40
2019-03-12T17:15:23.200Z,47.00
2019-03-12T17:17:51.780Z,48.00
2019-03-12T17:20:20.480Z,47.40
2019-03-12T17:22:49.055Z,47.40
2019-03-12T17:25:18.644Z,47.70
2019-03-12T17:27:47.388Z,46.70
2019-03-12T17:30:17.992Z,46.60
2019-03-12T17:32:46.640Z,47.40
2019-03-12T17:35:33.225Z,47.50
2019-03-12T17:38:01.932Z,48.10
2019-03-12T17:40:30.557Z,48.20
2019-03-12T17:42:59.128Z,48.40
2019-03-12T17:45:27.689Z,48.20
2019-03-12T17:47:56.572Z,48.30
2019-03-12T17:50:25.264Z,48.10
2019-03-12T17:52:53.911Z,48.20
2019-03-12T17:55:22.572Z,48.80
2019-03-12T17:57:51.265Z,46.40
2019-03-12T18:00:28.586Z,47.10
2019-03-12T18:02:57.288Z,47.40
2019-03-12T18:05:25.927Z,47.80
2019-03-12T18:07:54.927Z,47.20
2019-03-12T18:10:23.408Z,47.10
2019-03-12T18:12:52.022Z,46.90
2019-03-12T18:15:21.297Z,47.80
2019-03-12T18:17:50.079Z,45.80
2019-03-12T18:20:19.954Z,46.80
2019-03-12T18:22:48.534Z,44.10
2019-03-12T18:25:23.472Z,45.40
2019-03-12T18:27:52.296Z,42.60
2019-03-12T18:30:20.871Z,44.30
2019-03-12T18:32:49.439Z,41.90
2019-03-12T18:35:18.228Z,38.70
2019-03-12T18:37:46.869Z,38.60
2019-03-12T18:40:23.139Z,37.50
2019-03-12T18:42:51.782Z,37.20
2019-03-12T18:45:39.794Z,36.30
2019-03-12T18:48:08.452Z,36.00
2019-03-12T18:50:37.139Z,36.40
2019-03-12T18:53:05.894Z,36.90
2019-03-12T18:55:40.384Z,36.60
2019-03-12T18:58:09.996Z,37.60
2019-03-12T19:00:40.855Z,37.50
2019-03-12T19:03:09.408Z,39.20
2019-03-12T19:05:38.016Z,38.70
2019-03-12T19:08:06.660Z,39.70
2019-03-12T19:10:35.284Z,39.40
2019-03-12T19:13:03.920Z,39.20
2019-03-12T19:15:32.477Z,40.20
2019-03-12T19:18:01.116Z,39.30
2019-03-12T19:20:32.772Z,39.10
2019-03-12T19:22:59.884Z,39.20
2019-03-12T19:25:34.452Z,39.00
2019-03-12T19:28:03.167Z,38.90
2019-03-12T19:30:32.028Z,39.10
2019-03-12T19:33:05.184Z,38.60
2019-03-12T19:35:33.929Z,38.70
2019-03-12T19:38:03.216Z,40.90
2019-03-12T19:40:34.856Z,40.90
2019-03-12T19:43:03.493Z,39.50
2019-03-12T19:45:32.187Z,41.10
2019-03-12T19:48:00.809Z,40.80
2019-03-12T19:50:29.519Z,39.10
2019-03-12T19:52:58.073Z,41.00
2019-03-12T19:55:35.372Z,40.50
2019-03-12T19:58:04.152Z,41.40
2019-03-12T20:00:33.671Z,40.90
2019-03-12T20:03:10.722Z,38.90
2019-03-12T20:05:32.757Z,37.60
2019-03-12T20:08:01.389Z,39.70
2019-03-12T20:11:06.926Z,38.00
2019-03-12T20:14:12.145Z,37.30
2019-03-12T20:17:09.036Z,36.20
2019-03-12T20:20:11.749Z,35.00
2019-03-12T20:23:07.880Z,34.80
2019-03-12T20:25:39.540Z,33.80
2019-03-12T20:28:44.568Z,33.60
2019-03-12T20:31:50.003Z,33.50
2019-03-12T20:34:37.999Z,33.30
2019-03-12T20:37:35.426Z,33.30
2019-03-12T20:40:36.404Z,33.50
2019-03-12T20:43:39.928Z,33.20
2019-03-12T20:46:34.110Z,33.90
2019-03-12T20:49:28.172Z,34.40
2019-03-12T20:52:15.296Z,34.40
2019-03-12T20:55:02.140Z,35.40
2019-03-12T20:57:59.428Z,36.40
2019-03-12T21:00:47.596Z,39.80
2019-03-12T21:03:37.210Z,41.80
2019-03-12T21:06:28.630Z,43.00
2019-03-12T21:09:33.819Z,43.90
2019-03-12T21:12:29.528Z,44.40
2019-03-12T21:15:22.443Z,44.50
2019-03-12T21:18:22.915Z,44.20
2019-03-12T21:21:13.964Z,41.50
2019-03-12T21:23:45.616Z,39.40
2019-03-12T21:26:20.388Z,40.90
2019-03-12T21:28:52.243Z,39.40
2019-03-12T21:31:20.976Z,38.90
2019-03-12T21:33:49.532Z,38.20
2019-03-12T21:36:18.226Z,38.70
2019-03-12T21:38:46.767Z,38.50
2019-03-12T21:41:15.411Z,39.20
2019-03-12T21:43:44.040Z,39.00
2019-03-12T21:46:12.767Z,39.90
2019-03-12T21:48:41.302Z,40.70
2019-03-12T21:51:09.872Z,39.60
2019-03-12T21:53:38.429Z,39.80
2019-03-12T21:56:07.015Z,40.90
2019-03-12T21:58:35.560Z,41.00
2019-03-12T22:01:04.576Z,42.00
2019-03-12T22:03:33.123Z,41.70
2019-03-12T22:06:01.696Z,43.30
2019-03-12T22:08:30.253Z,43.70
2019-03-12T22:10:58.922Z,42.90
2019-03-12T22:13:27.468Z,42.00
2019-03-12T22:15:56.036Z,42.30
2019-03-12T22:18:24.583Z,40.90
2019-03-12T22:20:53.180Z,41.90
2019-03-12T22:23:23.364Z,40.80
2019-03-12T22:25:51.943Z,43.50
2019-03-12T22:28:20.499Z,43.00
2019-03-12T22:30:49.133Z,43.00
2019-03-12T22:33:17.676Z,42.30
2019-03-12T22:35:46.368Z,44.50
2019-03-12T22:38:15.127Z,44.00
2019-03-12T22:40:43.683Z,43.40
2019-03-12T22:43:12.256Z,43.00
2019-03-12T22:45:40.905Z,44.90
2019-03-12T22:48:09.532Z,45.80
2019-03-12T22:50:38.456Z,44.50
2019-03-12T22:53:07.129Z,47.00
2019-03-12T22:55:35.723Z,47.00
2019-03-12T22:58:04.305Z,47.80
2019-03-12T23:00:34.975Z,47.90
2019-03-12T23:03:03.725Z,48.40
2019-03-12T23:05:32.279Z,48.00
2019-03-12T23:08:00.869Z,47.40
2019-03-12T23:10:29.596Z,47.60
2019-03-12T23:12:58.308Z,48.10
2019-03-12T23:15:26.893Z,48.90
2019-03-12T23:17:55.465Z,48.80
2019-03-12T23:20:24.088Z,48.90
2019-03-12T23:22:52.665Z,48.80
2019-03-12T23:25:21.217Z,48.00
2019-03-12T23:27:49.789Z,47.80
2019-03-12T23:30:22.520Z,47.70
2019-03-12T23:32:51.267Z,47.80
2019-03-12T23:35:19.930Z,47.30
2019-03-12T23:37:48.737Z,47.10
2019-03-12T23:40:18.774Z,46.60
2019-03-12T23:42:47.635Z,46.00
2019-03-12T23:45:17.215Z,45.10
2019-03-12T23:47:46.152Z,45.40
2019-03-12T23:50:17.016Z,46.60
2019-03-12T23:52:46.029Z,47.00
2019-03-12T23:55:15.987Z,48.00
2019-03-12T23:57:44.580Z,48.30
